sensor_id;sensor_type;location;lat;lon;timestamp;pressure;altitude;pressure_sealevel;temperature;humidity
77749;BME280;66938;52.084;5.228;2023-02-22T00:01:18;101699.0;;;8.64;73.05
77749;BME280;66938;52.084;5.228;2023-02-22T00:02:58;101699.0;;;8.73;72.77
77749;BME280;66938;52.084;5.228;2023-02-22T00:04:35;101690.0;;;8.68;72.94
77749;BME280;66938;52.084;5.228;2023-02-22T00:06:16;101693.0;;;8.71;72.8
77749;BME280;66938;52.084;5.228;2023-02-22T00:09:33;101694.0;;;8.64;73.09
77749;BME280;66938;52.084;5.228;2023-02-22T00:11:10;101689.0;;;8.64;72.97
77749;BME280;66938;52.084;5.228;2023-02-22T00:12:47;101693.0;;;8.56;73.28
77749;BME280;66938;52.084;5.228;2023-02-22T00:14:26;101695.0;;;8.53;73.05
77749;BME280;66938;52.084;5.228;2023-02-22T00:17:40;101699.0;;;8.59;73.33
77749;BME280;66938;52.084;5.228;2023-02-22T00:19:18;101699.0;;;8.56;73.42
77749;BME280;66938;52.084;5.228;2023-02-22T00:20:54;101696.0;;;8.6;73.09
77749;BME280;66938;52.084;5.228;2023-02-22T00:24:22;101693.0;;;8.36;73.83
77749;BME280;66938;52.084;5.228;2023-02-22T00:25:59;101694.0;;;8.32;74.2
77749;BME280;66938;52.084;5.228;2023-02-22T00:27:35;101695.0;;;8.3;74.41
77749;BME280;66938;52.084;5.228;2023-02-22T00:29:11;101695.0;;;8.47;73.99
77749;BME280;66938;52.084;5.228;2023-02-22T00:32:25;101697.0;;;8.43;74.06
77749;BME280;66938;52.084;5.228;2023-02-22T00:34:01;101688.0;;;8.52;73.62
77749;BME280;66938;52.084;5.228;2023-02-22T00:35:38;101691.0;;;8.57;73.27
77749;BME280;66938;52.084;5.228;2023-02-22T00:38:50;101690.0;;;8.57;73.11
77749;BME280;66938;52.084;5.228;2023-02-22T00:40:30;101685.0;;;8.48;73.34
77749;BME280;66938;52.084;5.228;2023-02-22T00:42:07;101680.0;;;8.64;73.05
77749;BME280;66938;52.084;5.228;2023-02-22T00:43:43;101674.0;;;8.55;73.31
77749;BME280;66938;52.084;5.228;2023-02-22T00:46:59;101675.0;;;8.41;73.94
77749;BME280;66938;52.084;5.228;2023-02-22T00:48:35;101671.0;;;8.42;73.83
77749;BME280;66938;52.084;5.228;2023-02-22T00:50:14;101666.0;;;8.59;73.16
77749;BME280;66938;52.084;5.228;2023-02-22T00:53:27;101665.0;;;8.58;73.14
77749;BME280;66938;52.084;5.228;2023-02-22T00:55:07;101666.0;;;8.44;73.69
77749;BME280;66938;52.084;5.228;2023-02-22T00:56:44;101666.0;;;8.49;73.52
77749;BME280;66938;52.084;5.228;2023-02-22T00:58:21;101665.0;;;8.33;74.28
77749;BME280;66938;52.084;5.228;2023-02-22T01:01:34;101669.0;;;8.15;74.89
77749;BME280;66938;52.084;5.228;2023-02-22T01:03:11;101663.0;;;8.02;75.8
77749;BME280;66938;52.084;5.228;2023-02-22T01:04:52;101664.0;;;7.97;75.97
77749;BME280;66938;52.084;5.228;2023-02-22T01:08:08;101662.0;;;7.94;76.08
77749;BME280;66938;52.084;5.228;2023-02-22T01:09:44;101662.0;;;7.92;76.24
77749;BME280;66938;52.084;5.228;2023-02-22T01:11:21;101663.0;;;8.07;75.77
77749;BME280;66938;52.084;5.228;2023-02-22T01:12:59;101660.0;;;8.15;75.19
77749;BME280;66938;52.084;5.228;2023-02-22T01:16:12;101650.0;;;8.33;74.61
77749;BME280;66938;52.084;5.228;2023-02-22T01:17:50;101658.0;;;8.16;75.45
77749;BME280;66938;52.084;5.228;2023-02-22T01:19:27;101664.0;;;8.1;75.52
77749;BME280;66938;52.084;5.228;2023-02-22T01:22:43;101664.0;;;8.2;75.36
77749;BME280;66938;52.084;5.228;2023-02-22T01:24:21;101660.0;;;8.26;74.89
77749;BME280;66938;52.084;5.228;2023-02-22T01:25:57;101655.0;;;8.38;74.52
77749;BME280;66938;52.084;5.228;2023-02-22T01:27:34;101653.0;;;8.23;74.97
77749;BME280;66938;52.084;5.228;2023-02-22T01:30:55;101652.0;;;8.16;75.31
77749;BME280;66938;52.084;5.228;2023-02-22T01:32:33;101646.0;;;8.26;74.86
77749;BME280;66938;52.084;5.228;2023-02-22T01:34:12;101644.0;;;8.32;74.25
77749;BME280;66938;52.084;5.228;2023-02-22T01:37:26;101644.0;;;8.25;74.53
77749;BME280;66938;52.084;5.228;2023-02-22T01:39:02;101647.0;;;8.14;74.83
77749;BME280;66938;52.084;5.228;2023-02-22T01:40:40;101645.0;;;8.1;75.03
77749;BME280;66938;52.084;5.228;2023-02-22T01:42:17;101644.0;;;8.05;74.23
77749;BME280;66938;52.084;5.228;2023-02-22T01:45:41;101648.0;;;8.1;74.14
77749;BME280;66938;52.084;5.228;2023-02-22T01:47:39;101643.0;;;8.17;73.92
77749;BME280;66938;52.084;5.228;2023-02-22T01:49:16;101644.0;;;8.1;74.12
77749;BME280;66938;52.084;5.228;2023-02-22T01:50:55;101644.0;;;7.94;74.69
77749;BME280;66938;52.084;5.228;2023-02-22T01:52:34;101639.0;;;8.06;74.37
77749;BME280;66938;52.084;5.228;2023-02-22T01:55:55;101636.0;;;8.06;73.8
77749;BME280;66938;52.084;5.228;2023-02-22T01:57:34;101636.0;;;8.03;73.86
77749;BME280;66938;52.084;5.228;2023-02-22T01:59:13;101633.0;;;8.13;73.73
77749;BME280;66938;52.084;5.228;2023-02-22T02:02:26;101626.0;;;8.16;73.36
77749;BME280;66938;52.084;5.228;2023-02-22T02:04:06;101626.0;;;8.03;73.27
77749;BME280;66938;52.084;5.228;2023-02-22T02:05:47;101623.0;;;7.92;73.74
77749;BME280;66938;52.084;5.228;2023-02-22T02:07:25;101624.0;;;7.79;74.38
77749;BME280;66938;52.084;5.228;2023-02-22T02:10:47;101623.0;;;7.71;74.63
77749;BME280;66938;52.084;5.228;2023-02-22T02:12:26;101618.0;;;7.56;75.16
77749;BME280;66938;52.084;5.228;2023-02-22T02:14:06;101617.0;;;7.61;75.5
77749;BME280;66938;52.084;5.228;2023-02-22T02:15:43;101617.0;;;7.76;74.84
77749;BME280;66938;52.084;5.228;2023-02-22T02:18:58;101613.0;;;7.51;75.34
77749;BME280;66938;52.084;5.228;2023-02-22T02:20:39;101605.0;;;7.54;75.58
77749;BME280;66938;52.084;5.228;2023-02-22T02:22:33;101603.0;;;7.58;75.47
77749;BME280;66938;52.084;5.228;2023-02-22T02:24:36;101607.0;;;7.66;75.31
77749;BME280;66938;52.084;5.228;2023-02-22T02:27:10;101606.0;;;7.66;74.55
77749;BME280;66938;52.084;5.228;2023-02-22T02:29:14;101605.0;;;7.69;73.99
77749;BME280;66938;52.084;5.228;2023-02-22T02:32:55;101595.0;;;7.66;73.58
77749;BME280;66938;52.084;5.228;2023-02-22T02:34:35;101593.0;;;7.66;73.09
77749;BME280;66938;52.084;5.228;2023-02-22T02:38:04;101590.0;;;7.54;73.62
77749;BME280;66938;52.084;5.228;2023-02-22T02:39:50;101586.0;;;7.59;73.55
77749;BME280;66938;52.084;5.228;2023-02-22T02:41:35;101586.0;;;7.6;73.31
77749;BME280;66938;52.084;5.228;2023-02-22T02:43:19;101583.0;;;7.56;73.17
77749;BME280;66938;52.084;5.228;2023-02-22T02:45:08;101578.0;;;7.65;73.11
77749;BME280;66938;52.084;5.228;2023-02-22T02:48:32;101574.0;;;7.66;72.81
77749;BME280;66938;52.084;5.228;2023-02-22T02:50:16;101572.0;;;7.67;72.87
77749;BME280;66938;52.084;5.228;2023-02-22T02:51:55;101571.0;;;7.67;72.84
77749;BME280;66938;52.084;5.228;2023-02-22T02:53:34;101574.0;;;7.61;73.2
77749;BME280;66938;52.084;5.228;2023-02-22T02:56:53;101571.0;;;7.5;73.69
77749;BME280;66938;52.084;5.228;2023-02-22T02:58:30;101567.0;;;7.37;74.08
77749;BME280;66938;52.084;5.228;2023-02-22T03:00:26;101565.0;;;7.45;73.83
77749;BME280;66938;52.084;5.228;2023-02-22T03:02:32;101569.0;;;7.17;74.94
77749;BME280;66938;52.084;5.228;2023-02-22T03:04:22;101569.0;;;7.14;75.38
77749;BME280;66938;52.084;5.228;2023-02-22T03:06:15;101563.0;;;7.19;75.41
77749;BME280;66938;52.084;5.228;2023-02-22T03:08:21;101566.0;;;7.08;75.69
77749;BME280;66938;52.084;5.228;2023-02-22T03:10:13;101566.0;;;6.98;76.28
77749;BME280;66938;52.084;5.228;2023-02-22T03:14:03;101562.0;;;7.0;76.27
77749;BME280;66938;52.084;5.228;2023-02-22T03:15:49;101563.0;;;7.04;76.12
77749;BME280;66938;52.084;5.228;2023-02-22T03:17:39;101555.0;;;7.11;75.66
77749;BME280;66938;52.084;5.228;2023-02-22T03:19:20;101549.0;;;7.14;75.22
77749;BME280;66938;52.084;5.228;2023-02-22T03:21:09;101552.0;;;6.96;75.83
77749;BME280;66938;52.084;5.228;2023-02-22T03:22:57;101548.0;;;7.1;75.52
77749;BME280;66938;52.084;5.228;2023-02-22T03:26:27;101552.0;;;6.93;76.19
77749;BME280;66938;52.084;5.228;2023-02-22T03:28:12;101545.0;;;7.07;75.73
77749;BME280;66938;52.084;5.228;2023-02-22T03:29:54;101544.0;;;6.99;76.05
77749;BME280;66938;52.084;5.228;2023-02-22T03:31:39;101540.0;;;6.98;76.42
77749;BME280;66938;52.084;5.228;2023-02-22T03:33:24;101545.0;;;6.91;76.72
77749;BME280;66938;52.084;5.228;2023-02-22T03:36:46;101543.0;;;6.83;77.36
77749;BME280;66938;52.084;5.228;2023-02-22T03:38:26;101543.0;;;6.81;77.62
77749;BME280;66938;52.084;5.228;2023-02-22T03:41:55;101536.0;;;6.88;77.55
77749;BME280;66938;52.084;5.228;2023-02-22T03:43:37;101534.0;;;6.75;77.99
77749;BME280;66938;52.084;5.228;2023-02-22T03:46:58;101533.0;;;6.83;77.7
77749;BME280;66938;52.084;5.228;2023-02-22T03:48:42;101528.0;;;7.0;76.81
77749;BME280;66938;52.084;5.228;2023-02-22T03:50:27;101527.0;;;7.14;76.13
77749;BME280;66938;52.084;5.228;2023-02-22T03:52:07;101527.0;;;7.2;75.78
77749;BME280;66938;52.084;5.228;2023-02-22T03:55:22;101524.0;;;7.12;75.98
77749;BME280;66938;52.084;5.228;2023-02-22T03:57:04;101524.0;;;7.16;75.72
77749;BME280;66938;52.084;5.228;2023-02-22T03:58:48;101524.0;;;7.2;75.58
77749;BME280;66938;52.084;5.228;2023-02-22T04:00:27;101520.0;;;7.27;75.19
77749;BME280;66938;52.084;5.228;2023-02-22T04:03:42;101515.0;;;7.22;75.3
77749;BME280;66938;52.084;5.228;2023-02-22T04:05:20;101512.0;;;7.12;75.88
77749;BME280;66938;52.084;5.228;2023-02-22T04:06:56;101512.0;;;7.16;75.91
77749;BME280;66938;52.084;5.228;2023-02-22T04:08:33;101509.0;;;7.24;75.47
77749;BME280;66938;52.084;5.228;2023-02-22T04:11:51;101503.0;;;7.33;74.97
77749;BME280;66938;52.084;5.228;2023-02-22T04:13:27;101505.0;;;7.33;74.94
77749;BME280;66938;52.084;5.228;2023-02-22T04:15:05;101503.0;;;7.2;75.47
77749;BME280;66938;52.084;5.228;2023-02-22T04:18:19;101495.0;;;7.33;75.11
77749;BME280;66938;52.084;5.228;2023-02-22T04:19:57;101489.0;;;7.33;74.95
77749;BME280;66938;52.084;5.228;2023-02-22T04:21:34;101487.0;;;7.41;74.72
77749;BME280;66938;52.084;5.228;2023-02-22T04:24:48;101485.0;;;7.3;74.97
77749;BME280;66938;52.084;5.228;2023-02-22T04:26:24;101490.0;;;7.1;75.55
77749;BME280;66938;52.084;5.228;2023-02-22T04:28:01;101489.0;;;7.08;75.94
77749;BME280;66938;52.084;5.228;2023-02-22T04:29:38;101482.0;;;7.23;75.42
77749;BME280;66938;52.084;5.228;2023-02-22T04:32:52;101490.0;;;7.19;75.47
77749;BME280;66938;52.084;5.228;2023-02-22T04:34:28;101481.0;;;7.26;75.25
77749;BME280;66938;52.084;5.228;2023-02-22T04:36:05;101476.0;;;7.16;75.49
77749;BME280;66938;52.084;5.228;2023-02-22T04:39:17;101472.0;;;7.04;75.8
77749;BME280;66938;52.084;5.228;2023-02-22T04:40:53;101469.0;;;7.18;75.58
77749;BME280;66938;52.084;5.228;2023-02-22T04:42:29;101464.0;;;7.19;75.58
77749;BME280;66938;52.084;5.228;2023-02-22T04:44:06;101467.0;;;6.94;76.44
77749;BME280;66938;52.084;5.228;2023-02-22T04:47:18;101461.0;;;6.93;76.36
77749;BME280;66938;52.084;5.228;2023-02-22T04:48:54;101458.0;;;6.95;76.5
77749;BME280;66938;52.084;5.228;2023-02-22T04:50:30;101465.0;;;6.78;77.02
77749;BME280;66938;52.084;5.228;2023-02-22T04:53:43;101459.0;;;6.65;77.5
77749;BME280;66938;52.084;5.228;2023-02-22T04:55:20;101456.0;;;6.63;78.17
77749;BME280;66938;52.084;5.228;2023-02-22T04:56:56;101453.0;;;6.8;77.56
77749;BME280;66938;52.084;5.228;2023-02-22T05:00:14;101455.0;;;6.77;77.39
77749;BME280;66938;52.084;5.228;2023-02-22T05:01:51;101450.0;;;6.76;77.3
77749;BME280;66938;52.084;5.228;2023-02-22T05:03:28;101452.0;;;6.97;76.61
77749;BME280;66938;52.084;5.228;2023-02-22T05:05:05;101452.0;;;6.85;77.31
77749;BME280;66938;52.084;5.228;2023-02-22T05:08:18;101452.0;;;6.96;76.83
77749;BME280;66938;52.084;5.228;2023-02-22T05:09:54;101445.0;;;7.04;76.49
77749;BME280;66938;52.084;5.228;2023-02-22T05:11:30;101439.0;;;7.07;76.37
77749;BME280;66938;52.084;5.228;2023-02-22T05:14:43;101432.0;;;6.99;76.66
77749;BME280;66938;52.084;5.228;2023-02-22T05:16:20;101436.0;;;6.86;77.16
77749;BME280;66938;52.084;5.228;2023-02-22T05:17:56;101432.0;;;6.94;76.94
77749;BME280;66938;52.084;5.228;2023-02-22T05:21:08;101424.0;;;6.71;77.97
77749;BME280;66938;52.084;5.228;2023-02-22T05:22:45;101423.0;;;6.62;78.22
77749;BME280;66938;52.084;5.228;2023-02-22T05:24:21;101430.0;;;6.57;78.77
77749;BME280;66938;52.084;5.228;2023-02-22T05:25:57;101431.0;;;6.62;78.75
77749;BME280;66938;52.084;5.228;2023-02-22T05:29:10;101432.0;;;6.75;78.39
77749;BME280;66938;52.084;5.228;2023-02-22T05:30:47;101433.0;;;6.75;78.42
77749;BME280;66938;52.084;5.228;2023-02-22T05:32:23;101430.0;;;6.86;78.06
77749;BME280;66938;52.084;5.228;2023-02-22T05:35:36;101427.0;;;6.93;77.74
77749;BME280;66938;52.084;5.228;2023-02-22T05:37:12;101427.0;;;6.91;77.91
77749;BME280;66938;52.084;5.228;2023-02-22T05:38:48;101427.0;;;6.94;77.69
77749;BME280;66938;52.084;5.228;2023-02-22T05:42:03;101425.0;;;6.86;77.94
77749;BME280;66938;52.084;5.228;2023-02-22T05:43:40;101424.0;;;6.79;77.97
77749;BME280;66938;52.084;5.228;2023-02-22T05:45:19;101424.0;;;6.92;77.72
77749;BME280;66938;52.084;5.228;2023-02-22T05:46:55;101427.0;;;6.83;78.36
77749;BME280;66938;52.084;5.228;2023-02-22T05:50:09;101427.0;;;6.89;77.92
77749;BME280;66938;52.084;5.228;2023-02-22T05:51:46;101428.0;;;6.82;78.33
77749;BME280;66938;52.084;5.228;2023-02-22T05:53:23;101430.0;;;6.85;78.2
77749;BME280;66938;52.084;5.228;2023-02-22T05:56:36;101426.0;;;6.83;78.23
77749;BME280;66938;52.084;5.228;2023-02-22T05:58:12;101413.0;;;6.88;78.08
77749;BME280;66938;52.084;5.228;2023-02-22T05:59:49;101411.0;;;6.94;77.91
77749;BME280;66938;52.084;5.228;2023-02-22T06:03:04;101410.0;;;7.05;77.58
77749;BME280;66938;52.084;5.228;2023-02-22T06:04:43;101409.0;;;7.04;77.62
77749;BME280;66938;52.084;5.228;2023-02-22T06:06:19;101400.0;;;7.09;77.44
77749;BME280;66938;52.084;5.228;2023-02-22T06:07:56;101394.0;;;6.94;77.84
77749;BME280;66938;52.084;5.228;2023-02-22T06:11:09;101396.0;;;6.93;78.24
77749;BME280;66938;52.084;5.228;2023-02-22T06:12:46;101399.0;;;6.98;77.99
77749;BME280;66938;52.084;5.228;2023-02-22T06:14:25;101402.0;;;6.92;78.14
77749;BME280;66938;52.084;5.228;2023-02-22T06:17:41;101400.0;;;6.94;78.23
77749;BME280;66938;52.084;5.228;2023-02-22T06:19:17;101400.0;;;7.03;77.91
77749;BME280;66938;52.084;5.228;2023-02-22T06:20:53;101397.0;;;6.99;78.06
77749;BME280;66938;52.084;5.228;2023-02-22T06:22:29;101395.0;;;6.97;78.3
77749;BME280;66938;52.084;5.228;2023-02-22T06:25:42;101398.0;;;7.01;78.17
77749;BME280;66938;52.084;5.228;2023-02-22T06:27:18;101394.0;;;6.97;78.19
77749;BME280;66938;52.084;5.228;2023-02-22T06:28:54;101396.0;;;7.02;78.33
77749;BME280;66938;52.084;5.228;2023-02-22T06:32:06;101396.0;;;6.99;78.36
77749;BME280;66938;52.084;5.228;2023-02-22T06:33:42;101388.0;;;6.97;78.37
77749;BME280;66938;52.084;5.228;2023-02-22T06:38:32;101382.0;;;7.05;78.03
77749;BME280;66938;52.084;5.228;2023-02-22T06:40:11;101381.0;;;7.07;77.99
77749;BME280;66938;52.084;5.228;2023-02-22T06:41:49;101380.0;;;7.12;77.69
77749;BME280;66938;52.084;5.228;2023-02-22T06:43:25;101375.0;;;7.1;77.7
77749;BME280;66938;52.084;5.228;2023-02-22T06:46:39;101384.0;;;7.1;77.8
77749;BME280;66938;52.084;5.228;2023-02-22T06:48:21;101382.0;;;7.07;77.78
77749;BME280;66938;52.084;5.228;2023-02-22T06:49:58;101380.0;;;6.87;78.34
77749;BME280;66938;52.084;5.228;2023-02-22T06:53:12;101378.0;;;6.99;78.16
77749;BME280;66938;52.084;5.228;2023-02-22T06:54:50;101377.0;;;7.01;77.97
77749;BME280;66938;52.084;5.228;2023-02-22T06:56:27;101369.0;;;7.07;77.87
77749;BME280;66938;52.084;5.228;2023-02-22T06:58:04;101366.0;;;6.99;77.97
77749;BME280;66938;52.084;5.228;2023-02-22T07:01:18;101368.0;;;7.01;77.83
77749;BME280;66938;52.084;5.228;2023-02-22T07:02:55;101373.0;;;7.04;77.94
77749;BME280;66938;52.084;5.228;2023-02-22T07:04:31;101370.0;;;7.05;77.89
77749;BME280;66938;52.084;5.228;2023-02-22T07:07:45;101368.0;;;6.93;78.16
77749;BME280;66938;52.084;5.228;2023-02-22T07:09:23;101372.0;;;6.92;78.45
77749;BME280;66938;52.084;5.228;2023-02-22T07:11:00;101373.0;;;6.79;78.95
77749;BME280;66938;52.084;5.228;2023-02-22T07:14:15;101371.0;;;6.93;78.81
77749;BME280;66938;52.084;5.228;2023-02-22T07:15:52;101377.0;;;7.09;78.33
77749;BME280;66938;52.084;5.228;2023-02-22T07:17:28;101373.0;;;7.0;78.31
77749;BME280;66938;52.084;5.228;2023-02-22T07:19:05;101381.0;;;7.13;78.02
77749;BME280;66938;52.084;5.228;2023-02-22T07:22:18;101380.0;;;6.93;78.47
77749;BME280;66938;52.084;5.228;2023-02-22T07:23:55;101378.0;;;6.81;78.8
77749;BME280;66938;52.084;5.228;2023-02-22T07:25:33;101376.0;;;6.91;78.42
77749;BME280;66938;52.084;5.228;2023-02-22T07:28:46;101377.0;;;6.99;78.19
77749;BME280;66938;52.084;5.228;2023-02-22T07:30:27;101383.0;;;7.17;77.7
77749;BME280;66938;52.084;5.228;2023-02-22T07:32:03;101381.0;;;7.07;78.0
77749;BME280;66938;52.084;5.228;2023-02-22T07:33:41;101382.0;;;7.0;78.45
77749;BME280;66938;52.084;5.228;2023-02-22T07:36:57;101385.0;;;7.02;78.41
77749;BME280;66938;52.084;5.228;2023-02-22T07:38:33;101392.0;;;7.11;78.3
77749;BME280;66938;52.084;5.228;2023-02-22T07:40:10;101396.0;;;7.12;78.34
77749;BME280;66938;52.084;5.228;2023-02-22T07:43:26;101394.0;;;7.01;78.66
77749;BME280;66938;52.084;5.228;2023-02-22T07:45:04;101400.0;;;6.95;79.27
77749;BME280;66938;52.084;5.228;2023-02-22T07:46:40;101395.0;;;6.9;79.2
77749;BME280;66938;52.084;5.228;2023-02-22T07:48:19;101401.0;;;7.04;78.97
77749;BME280;66938;52.084;5.228;2023-02-22T07:51:32;101407.0;;;7.16;78.61
77749;BME280;66938;52.084;5.228;2023-02-22T07:53:14;101407.0;;;7.14;78.63
77749;BME280;66938;52.084;5.228;2023-02-22T07:54:51;101411.0;;;7.26;78.22
77749;BME280;66938;52.084;5.228;2023-02-22T07:58:06;101407.0;;;7.18;78.55
77749;BME280;66938;52.084;5.228;2023-02-22T07:59:44;101405.0;;;7.16;78.59
77749;BME280;66938;52.084;5.228;2023-02-22T08:01:21;101400.0;;;7.3;78.22
77749;BME280;66938;52.084;5.228;2023-02-22T08:02:59;101402.0;;;7.27;78.06
77749;BME280;66938;52.084;5.228;2023-02-22T08:06:11;101408.0;;;7.36;77.86
77749;BME280;66938;52.084;5.228;2023-02-22T08:07:47;101405.0;;;7.32;77.97
77749;BME280;66938;52.084;5.228;2023-02-22T08:09:23;101405.0;;;7.39;77.73
77749;BME280;66938;52.084;5.228;2023-02-22T08:12:37;101408.0;;;7.29;78.23
77749;BME280;66938;52.084;5.228;2023-02-22T08:14:14;101411.0;;;7.27;78.27
77749;BME280;66938;52.084;5.228;2023-02-22T08:15:52;101405.0;;;7.39;78.02
77749;BME280;66938;52.084;5.228;2023-02-22T08:17:29;101398.0;;;7.45;77.77
77749;BME280;66938;52.084;5.228;2023-02-22T08:20:43;101401.0;;;7.47;77.66
77749;BME280;66938;52.084;5.228;2023-02-22T08:22:20;101400.0;;;7.51;77.58
77749;BME280;66938;52.084;5.228;2023-02-22T08:23:57;101395.0;;;7.38;77.97
77749;BME280;66938;52.084;5.228;2023-02-22T08:27:11;101401.0;;;7.24;78.08
77749;BME280;66938;52.084;5.228;2023-02-22T08:28:47;101398.0;;;7.44;77.59
77749;BME280;66938;52.084;5.228;2023-02-22T08:30:24;101394.0;;;7.52;77.39
77749;BME280;66938;52.084;5.228;2023-02-22T08:33:36;101396.0;;;7.36;77.72
77749;BME280;66938;52.084;5.228;2023-02-22T08:35:14;101394.0;;;7.41;77.66
77749;BME280;66938;52.084;5.228;2023-02-22T08:36:52;101397.0;;;7.43;78.05
77749;BME280;66938;52.084;5.228;2023-02-22T08:38:30;101396.0;;;7.52;77.75
77749;BME280;66938;52.084;5.228;2023-02-22T08:41:44;101400.0;;;7.51;77.72
77749;BME280;66938;52.084;5.228;2023-02-22T08:43:22;101395.0;;;7.52;78.08
77749;BME280;66938;52.084;5.228;2023-02-22T08:44:58;101392.0;;;7.54;77.83
77749;BME280;66938;52.084;5.228;2023-02-22T08:48:11;101388.0;;;7.61;77.69
77749;BME280;66938;52.084;5.228;2023-02-22T08:49:48;101387.0;;;7.52;77.91
77749;BME280;66938;52.084;5.228;2023-02-22T08:51:24;101380.0;;;7.61;77.61
77749;BME280;66938;52.084;5.228;2023-02-22T08:54:40;101372.0;;;7.6;77.48
77749;BME280;66938;52.084;5.228;2023-02-22T08:56:16;101369.0;;;7.73;77.25
77749;BME280;66938;52.084;5.228;2023-02-22T08:57:53;101367.0;;;7.68;77.28
77749;BME280;66938;52.084;5.228;2023-02-22T08:59:29;101362.0;;;7.77;77.36
77749;BME280;66938;52.084;5.228;2023-02-22T09:02:41;101350.0;;;7.86;77.11
77749;BME280;66938;52.084;5.228;2023-02-22T09:04:18;101351.0;;;7.94;76.97
77749;BME280;66938;52.084;5.228;2023-02-22T09:05:55;101356.0;;;7.91;76.94
77749;BME280;66938;52.084;5.228;2023-02-22T09:09:08;101369.0;;;7.83;77.59
77749;BME280;66938;52.084;5.228;2023-02-22T09:10:45;101368.0;;;7.75;77.7
77749;BME280;66938;52.084;5.228;2023-02-22T09:12:22;101365.0;;;7.96;77.34
77749;BME280;66938;52.084;5.228;2023-02-22T09:13:58;101362.0;;;7.94;76.97
77749;BME280;66938;52.084;5.228;2023-02-22T09:17:13;101369.0;;;7.91;77.14
77749;BME280;66938;52.084;5.228;2023-02-22T09:18:49;101362.0;;;7.97;77.25
77749;BME280;66938;52.084;5.228;2023-02-22T09:20:26;101369.0;;;8.06;76.87
77749;BME280;66938;52.084;5.228;2023-02-22T09:23:40;101363.0;;;8.18;76.66
77749;BME280;66938;52.084;5.228;2023-02-22T09:25:17;101357.0;;;8.25;76.16
77749;BME280;66938;52.084;5.228;2023-02-22T09:26:54;101353.0;;;8.28;76.0
77749;BME280;66938;52.084;5.228;2023-02-22T09:30:15;101345.0;;;8.28;75.78
77749;BME280;66938;52.084;5.228;2023-02-22T09:31:54;101336.0;;;8.43;75.58
77749;BME280;66938;52.084;5.228;2023-02-22T09:33:31;101335.0;;;8.45;75.34
77749;BME280;66938;52.084;5.228;2023-02-22T09:35:07;101335.0;;;8.55;75.11
77749;BME280;66938;52.084;5.228;2023-02-22T09:38:25;101330.0;;;8.32;75.41
77749;BME280;66938;52.084;5.228;2023-02-22T09:40:01;101330.0;;;8.56;75.11
77749;BME280;66938;52.084;5.228;2023-02-22T09:41:45;101326.0;;;8.52;75.19
77749;BME280;66938;52.084;5.228;2023-02-22T09:43:34;101322.0;;;8.45;75.55
77749;BME280;66938;52.084;5.228;2023-02-22T09:46:56;101324.0;;;8.61;75.41
77749;BME280;66938;52.084;5.228;2023-02-22T09:48:35;101327.0;;;8.66;75.52
77749;BME280;66938;52.084;5.228;2023-02-22T09:50:21;101323.0;;;8.74;75.11
77749;BME280;66938;52.084;5.228;2023-02-22T09:52:01;101318.0;;;8.8;75.02
77749;BME280;66938;52.084;5.228;2023-02-22T09:55:30;101306.0;;;8.85;74.8
77749;BME280;66938;52.084;5.228;2023-02-22T09:57:13;101305.0;;;8.98;74.73
77749;BME280;66938;52.084;5.228;2023-02-22T09:58:55;101299.0;;;8.93;75.19
77749;BME280;66938;52.084;5.228;2023-02-22T10:00:36;101299.0;;;9.03;74.55
77749;BME280;66938;52.084;5.228;2023-02-22T10:02:22;101298.0;;;9.15;73.94
77749;BME280;66938;52.084;5.228;2023-02-22T10:05:51;101309.0;;;9.14;73.69
77749;BME280;66938;52.084;5.228;2023-02-22T10:07:32;101313.0;;;9.19;74.11
77749;BME280;66938;52.084;5.228;2023-02-22T10:09:10;101314.0;;;9.24;73.62
77749;BME280;66938;52.084;5.228;2023-02-22T10:10:56;101310.0;;;9.25;74.0
77749;BME280;66938;52.084;5.228;2023-02-22T10:12:50;101309.0;;;9.14;75.22
77749;BME280;66938;52.084;5.228;2023-02-22T10:16:34;101311.0;;;9.3;74.02
77749;BME280;66938;52.084;5.228;2023-02-22T10:18:43;101310.0;;;9.48;73.05
77749;BME280;66938;52.084;5.228;2023-02-22T10:20:46;101309.0;;;9.43;72.02
77749;BME280;66938;52.084;5.228;2023-02-22T10:22:37;101307.0;;;9.58;71.72
77749;BME280;66938;52.084;5.228;2023-02-22T10:24:30;101306.0;;;9.63;71.77
77749;BME280;66938;52.084;5.228;2023-02-22T10:26:15;101301.0;;;9.71;71.8
77749;BME280;66938;52.084;5.228;2023-02-22T10:27:54;101299.0;;;9.67;71.83
77749;BME280;66938;52.084;5.228;2023-02-22T10:29:37;101305.0;;;9.56;72.16
77749;BME280;66938;52.084;5.228;2023-02-22T10:33:04;101306.0;;;9.61;72.36
77749;BME280;66938;52.084;5.228;2023-02-22T10:34:47;101308.0;;;9.78;71.8
77749;BME280;66938;52.084;5.228;2023-02-22T10:36:26;101306.0;;;9.89;71.52
77749;BME280;66938;52.084;5.228;2023-02-22T10:38:13;101308.0;;;9.88;71.49
77749;BME280;66938;52.084;5.228;2023-02-22T10:39:56;101314.0;;;9.73;72.27
77749;BME280;66938;52.084;5.228;2023-02-22T10:43:23;101318.0;;;9.76;72.16
77749;BME280;66938;52.084;5.228;2023-02-22T10:44:59;101315.0;;;9.78;71.52
77749;BME280;66938;52.084;5.228;2023-02-22T10:46:36;101307.0;;;9.86;71.39
77749;BME280;66938;52.084;5.228;2023-02-22T10:48:16;101306.0;;;9.89;71.55
77749;BME280;66938;52.084;5.228;2023-02-22T10:51:34;101302.0;;;9.89;71.3
77749;BME280;66938;52.084;5.228;2023-02-22T10:53:12;101298.0;;;9.99;71.09
77749;BME280;66938;52.084;5.228;2023-02-22T10:54:50;101290.0;;;10.01;70.8
77749;BME280;66938;52.084;5.228;2023-02-22T10:56:29;101295.0;;;9.94;71.05
77749;BME280;66938;52.084;5.228;2023-02-22T10:59:44;101285.0;;;10.09;70.8
77749;BME280;66938;52.084;5.228;2023-02-22T11:01:25;101302.0;;;9.99;71.58
77749;BME280;66938;52.084;5.228;2023-02-22T11:03:05;101298.0;;;10.06;70.64
77749;BME280;66938;52.084;5.228;2023-02-22T11:04:52;101301.0;;;9.93;71.23
77749;BME280;66938;52.084;5.228;2023-02-22T11:08:15;101292.0;;;10.11;70.72
77749;BME280;66938;52.084;5.228;2023-02-22T11:10:00;101291.0;;;10.1;70.66
77749;BME280;66938;52.084;5.228;2023-02-22T11:11:40;101295.0;;;10.0;71.73
77749;BME280;66938;52.084;5.228;2023-02-22T11:13:24;101291.0;;;9.94;71.8
77749;BME280;66938;52.084;5.228;2023-02-22T11:17:06;101287.0;;;10.16;71.17
77749;BME280;66938;52.084;5.228;2023-02-22T11:18:45;101293.0;;;10.23;71.16
77749;BME280;66938;52.084;5.228;2023-02-22T11:20:26;101298.0;;;10.22;71.34